Time;durP1;ratioP1;P1;durP2;ratioP2;P2;SDS_P1;SDS_P2;PMS_P1;PMS_P2;Temp;Humidity;BMP_temperature;BMP_pressure;BME280_temperature;BME280_humidity;BME280_pressure;Samples;Min_cycle;Max_cycle;Signal;HPM_P1;HPM_P2
2021/12/07 00:02:05;;;;;;;22.35;15.27;;;;;;;-0.47;97.32;99464.13;5011264;28;20038;-84
2021/12/07 00:04:30;;;;;;;25.08;15.45;;;;;;;-0.48;97.60;99451.66;4994954;28;20054;-84
2021/12/07 00:06:56;;;;;;;21.75;14.48;;;;;;;-0.49;97.35;99447.38;5012141;28;20145;-84
2021/12/07 00:09:22;;;;;;;22.83;15.38;;;;;;;-0.52;97.46;99445.41;5013061;28;20042;-84
2021/12/07 00:11:49;;;;;;;27.42;16.15;;;;;;;-0.59;97.29;99434.44;5000124;28;20068;-84
2021/12/07 00:14:22;;;;;;;25.17;15.77;;;;;;;-0.54;97.28;99442.28;5011933;28;20504;-84
2021/12/07 00:16:48;;;;;;;22.88;13.30;;;;;;;-0.51;96.85;99438.78;5011880;28;20053;-84
2021/12/07 00:19:14;;;;;;;28.15;16.55;;;;;;;-0.50;96.80;99448.53;5011992;28;20038;-84
2021/12/07 00:21:41;;;;;;;23.98;15.85;;;;;;;-0.50;96.73;99449.31;5011874;28;20045;-84
2021/12/07 00:24:08;;;;;;;24.00;13.55;;;;;;;-0.47;96.52;99448.56;5011625;28;20506;-84
2021/12/07 00:26:33;;;;;;;23.40;15.23;;;;;;;-0.50;96.55;99454.78;5011891;28;20053;-84
2021/12/07 00:29:02;;;;;;;26.10;16.17;;;;;;;-0.51;96.36;99460.59;5011708;28;20038;-84
2021/12/07 00:31:35;;;;;;;23.77;15.00;;;;;;;-0.50;96.23;99470.34;5012040;28;20068;-84
2021/12/07 00:36:32;;;;;;;27.67;17.10;;;;;;;-0.59;97.14;99480.75;4995994;28;20038;-84
2021/12/07 00:38:58;;;;;;;28.60;16.92;;;;;;;-0.60;97.33;99481.91;4994118;28;20038;-84
2021/12/07 00:41:23;;;;;;;29.67;16.85;;;;;;;-0.67;97.43;99455.41;4978118;28;20030;-84
2021/12/07 00:43:49;;;;;;;24.67;13.00;;;;;;;-0.61;97.55;99474.91;5011009;28;20050;-84
2021/12/07 00:46:15;;;;;;;27.95;16.77;;;;;;;-0.65;97.91;99471.38;4977611;28;20045;-84
2021/12/07 00:48:40;;;;;;;27.33;17.33;;;;;;;-0.74;98.12;99458.06;5011638;28;20042;-84
2021/12/07 00:51:06;;;;;;;23.77;14.55;;;;;;;-0.73;98.16;99445.25;4993281;28;20061;-84
2021/12/07 00:53:31;;;;;;;26.65;15.90;;;;;;;-0.71;98.14;99464.69;4994347;28;20040;-84
2021/12/07 00:55:59;;;;;;;24.95;16.20;;;;;;;-0.75;98.90;99463.88;4993845;28;20045;-84
2021/12/07 00:58:26;;;;;;;26.45;16.88;;;;;;;-0.86;98.79;99457.56;5011852;28;20042;-84
2021/12/07 01:01:06;;;;;;;26.42;16.60;;;;;;;-0.89;98.73;99472.72;4993826;28;20042;-84
2021/12/07 01:03:32;;;;;;;27.17;16.50;;;;;;;-0.89;99.01;99480.09;5011077;28;20435;-84
2021/12/07 01:06:29;;;;;;;26.17;15.35;;;;;;;-0.83;99.18;99484.03;4993609;28;20140;-84
2021/12/07 01:25:09;;;;;;;29.48;17.13;;;;;;;-0.84;98.52;99477.78;4995583;28;20498;-84
2021/12/07 01:27:36;;;;;;;28.02;16.00;;;;;;;-0.77;98.32;99493.44;5010531;28;20037;-84
2021/12/07 01:35:43;;;;;;;28.08;16.90;;;;;;;-0.76;98.63;99484.88;4993668;28;20052;-84
2021/12/07 01:38:30;;;;;;;28.70;16.40;;;;;;;-0.78;98.52;99483.69;4993524;28;20049;-84
2021/12/07 01:52:07;;;;;;;29.25;18.20;;;;;;;-1.04;99.08;99496.25;5014185;28;20539;-84
2021/12/07 01:59:50;;;;;;;33.72;18.25;;;;;;;-1.06;100.00;99492.34;4993084;28;20084;-84
2021/12/07 02:02:17;;;;;;;31.23;18.20;;;;;;;-1.13;100.00;99493.03;5262549;23;20058;-86
2021/12/07 02:04:43;;;;;;;30.35;17.42;;;;;;;-1.11;100.00;99500.84;5011965;28;20124;-87
2021/12/07 02:07:13;;;;;;;30.38;17.40;;;;;;;-1.17;100.00;99496.91;4996074;28;20084;-87
2021/12/07 02:09:45;;;;;;;30.83;17.75;;;;;;;-1.14;100.00;99501.59;4996124;28;20510;-86
2021/12/07 02:12:13;;;;;;;31.60;17.92;;;;;;;-1.21;100.00;99494.13;4994721;28;20045;-87
2021/12/07 02:14:41;;;;;;;33.17;18.30;;;;;;;-1.26;100.00;99491.75;4976297;28;20049;-87
2021/12/07 02:17:09;;;;;;;32.03;17.88;;;;;;;-1.27;100.00;99486.66;4995776;28;20048;-86
2021/12/07 02:19:36;;;;;;;30.58;17.65;;;;;;;-1.18;100.00;99495.34;4996104;28;20045;-91
2021/12/07 02:22:03;;;;;;;33.08;18.70;;;;;;;-1.24;100.00;99497.59;4995875;28;20076;-91
2021/12/07 02:24:35;;;;;;;33.05;18.33;;;;;;;-1.24;100.00;99500.31;4995104;28;20052;-91
2021/12/07 02:27:02;;;;;;;32.65;18.40;;;;;;;-1.23;100.00;99499.16;4995375;28;20042;-91
2021/12/07 02:29:28;;;;;;;29.17;17.35;;;;;;;-1.30;100.00;99487.41;4979354;28;20044;-91
2021/12/07 02:31:55;;;;;;;32.80;18.92;;;;;;;-1.25;100.00;99496.00;4991261;28;20046;-91
2021/12/07 02:34:23;;;;;;;34.50;18.77;;;;;;;-1.29;100.00;99489.00;4995260;28;20033;-90
2021/12/07 02:36:50;;;;;;;31.17;18.70;;;;;;;-1.39;100.00;99468.66;4980051;28;20506;-91
2021/12/07 02:39:18;;;;;;;31.90;18.05;;;;;;;-1.40;100.00;99467.06;4978436;28;20030;-91
2021/12/07 02:41:44;;;;;;;33.53;19.58;;;;;;;-1.43;100.00;99487.66;4994101;28;20046;-91
2021/12/07 02:44:13;;;;;;;33.25;18.38;;;;;;;-1.49;100.00;99474.72;4983080;28;20439;-91
2021/12/07 02:46:39;;;;;;;30.13;17.65;;;;;;;-1.56;100.00;99458.34;4992711;28;20026;-92
2021/12/07 02:49:07;;;;;;;29.38;18.25;;;;;;;-1.47;100.00;99489.53;4980360;28;20080;-92
2021/12/07 02:51:33;;;;;;;35.72;19.80;;;;;;;-1.54;100.00;99472.34;4980081;28;20495;-90
2021/12/07 02:53:59;;;;;;;33.58;19.58;;;;;;;-1.51;100.00;99469.69;4995414;28;20033;-92
2021/12/07 02:56:26;;;;;;;34.08;19.08;;;;;;;-1.65;100.00;99463.25;5005113;28;20056;-91
2021/12/07 02:58:57;;;;;;;31.88;18.80;;;;;;;-1.58;100.00;99469.59;4994662;28;20140;-91
2021/12/07 03:01:27;;;;;;;32.50;18.58;;;;;;;-1.61;100.00;99469.53;4984348;28;20037;-91
2021/12/07 03:04:03;;;;;;;32.30;18.67;;;;;;;-1.59;100.00;99475.41;4958220;28;20046;-91
2021/12/07 03:28:20;;;;;;;35.60;20.33;;;;;;;-1.92;100.00;99463.31;4996443;28;20038;-91
2021/12/07 03:30:47;;;;;;;33.42;19.38;;;;;;;-1.88;100.00;99461.44;4980747;28;20466;-91
2021/12/07 03:33:14;;;;;;;34.40;19.25;;;;;;;-1.86;100.00;99474.66;5000542;28;20422;-92
2021/12/07 03:35:40;;;;;;;36.95;20.35;;;;;;;-1.93;100.00;99456.31;4998466;28;20490;-91
2021/12/07 03:38:07;;;;;;;35.25;20.20;;;;;;;-1.94;100.00;99460.16;4966798;28;20033;-93
2021/12/07 03:40:34;;;;;;;32.67;19.67;;;;;;;-1.94;100.00;99462.88;4979282;28;20046;-92
2021/12/07 03:43:00;;;;;;;36.13;19.42;;;;;;;-1.96;100.00;99473.34;4998864;28;20126;-92
2021/12/07 03:45:28;;;;;;;35.75;20.92;;;;;;;-2.00;100.00;99460.84;4979793;28;20033;-93
2021/12/07 03:47:55;;;;;;;34.88;19.08;;;;;;;-2.01;100.00;99462.78;4979368;28;20646;-91
2021/12/07 03:50:22;;;;;;;33.00;18.25;;;;;;;-2.03;100.00;99461.59;4979738;28;20045;-93
2021/12/07 03:52:50;;;;;;;35.15;19.63;;;;;;;-2.03;100.00;99462.38;4963465;28;20038;-93
2021/12/07 03:55:16;;;;;;;35.70;20.52;;;;;;;-1.95;100.00;99474.94;4979165;28;20046;-93
2021/12/07 03:57:42;;;;;;;34.10;19.30;;;;;;;-1.99;100.00;99457.78;4998022;28;20115;-86
2021/12/07 04:00:11;;;;;;;36.60;19.83;;;;;;;-1.90;100.00;99476.56;4973084;28;20042;-87
2021/12/07 04:02:41;;;;;;;33.38;18.08;;;;;;;-1.90;100.00;99480.03;4994945;28;20045;-86
2021/12/07 04:05:14;;;;;;;34.35;19.38;;;;;;;-1.92;100.00;99479.63;4984516;28;20137;-87
2021/12/07 04:07:41;;;;;;;33.55;18.85;;;;;;;-1.90;100.00;99482.75;4975226;28;20148;-86
2021/12/07 04:10:10;;;;;;;34.53;19.30;;;;;;;-1.91;100.00;99485.84;4990322;28;20050;-87
2021/12/07 04:12:36;;;;;;;34.75;19.15;;;;;;;-1.89;100.00;99489.75;4994578;28;20128;-87
2021/12/07 04:15:04;;;;;;;33.33;19.58;;;;;;;-2.01;100.00;99489.97;4994848;28;20033;-90
2021/12/07 04:17:30;;;;;;;34.38;19.98;;;;;;;-2.02;100.00;99491.13;4978656;28;20092;-91
2021/12/07 04:19:55;;;;;;;34.72;19.90;;;;;;;-2.00;100.00;99505.13;4983804;28;20034;-91
2021/12/07 04:22:21;;;;;;;36.90;21.70;;;;;;;-2.04;100.00;99493.44;4978271;28;20487;-92
2021/12/07 04:24:46;;;;;;;37.67;20.65;;;;;;;-1.98;100.00;99500.09;5011806;28;20077;-91
2021/12/07 04:27:12;;;;;;;36.17;20.35;;;;;;;-1.99;100.00;99504.00;4993371;28;20459;-90
2021/12/07 04:29:37;;;;;;;36.15;19.73;;;;;;;-2.02;100.00;99501.22;4978562;28;20049;-91
2021/12/07 04:32:03;;;;;;;36.58;20.00;;;;;;;-1.98;100.00;99513.69;4994371;28;20034;-91
2021/12/07 04:34:29;;;;;;;40.88;21.52;;;;;;;-2.01;100.00;99509.00;4993529;28;20052;-92
2021/12/07 04:36:54;;;;;;;35.10;20.50;;;;;;;-2.03;100.00;99511.31;4994398;28;20038;-91
2021/12/07 04:39:20;;;;;;;36.60;21.42;;;;;;;-2.01;100.00;99514.44;4978091;28;20061;-90
2021/12/07 04:41:48;;;;;;;38.10;20.50;;;;;;;-2.04;100.00;99509.72;4977775;28;20078;-91
2021/12/07 04:44:13;;;;;;;39.22;22.02;;;;;;;-2.09;100.00;99515.47;4978403;28;20038;-92
2021/12/07 04:46:54;;;;;;;37.13;21.38;;;;;;;-2.17;100.00;99488.56;4994335;28;20049;-91
2021/12/07 05:00:19;;;;;;;34.97;19.65;;;;;;;-2.06;100.00;99525.59;4995093;28;20100;-85
2021/12/07 05:02:51;;;;;;;36.55;20.27;;;;;;;-2.12;100.00;99518.94;4979788;28;20440;-87
2021/12/07 05:05:17;;;;;;;37.30;20.88;;;;;;;-2.07;100.00;99525.97;4983955;28;20081;-86
2021/12/07 05:07:50;;;;;;;37.97;21.08;;;;;;;-2.13;100.00;99522.78;5009537;28;20076;-86
2021/12/07 05:10:26;;;;;;;34.28;20.73;;;;;;;-2.19;100.00;99516.09;4994286;28;20048;-86
2021/12/07 05:15:32;;;;;;;36.00;20.70;;;;;;;-2.21;100.00;99539.34;4995746;28;20487;-90
2021/12/07 05:18:22;;;;;;;36.72;21.23;;;;;;;-2.23;100.00;99545.16;4984662;28;20502;-90
2021/12/07 05:34:52;;;;;;;36.25;20.48;;;;;;;-2.00;100.00;99535.03;5009873;28;20046;-90
2021/12/07 05:40:06;;;;;;;36.03;20.73;;;;;;;-2.02;100.00;99534.59;4988005;28;20108;-89
2021/12/07 05:42:31;;;;;;;34.60;19.40;;;;;;;-2.01;100.00;99536.16;4994726;28;20050;-90
2021/12/07 05:44:57;;;;;;;38.53;21.77;;;;;;;-2.04;100.00;99526.03;4963774;28;20050;-89
2021/12/07 05:47:23;;;;;;;38.35;20.90;;;;;;;-1.96;100.00;99538.59;4978458;28;20137;-89
2021/12/07 05:49:49;;;;;;;36.45;21.27;;;;;;;-1.98;100.00;99554.47;4974535;28;20046;-89
2021/12/07 05:52:14;;;;;;;35.25;20.73;;;;;;;-2.08;100.00;99541.50;5012214;28;20129;-90
2021/12/07 05:54:40;;;;;;;35.72;20.65;;;;;;;-2.16;100.00;99531.66;4992153;28;20117;-86
2021/12/07 05:57:06;;;;;;;35.30;19.90;;;;;;;-2.09;100.00;99545.34;4992368;28;20045;-87
2021/12/07 05:59:32;;;;;;;35.03;20.63;;;;;;;-2.23;100.00;99534.28;4971776;28;20038;-87
2021/12/07 06:01:58;;;;;;;36.42;21.40;;;;;;;-2.22;100.00;99529.63;5003206;28;20575;-86
2021/12/07 06:04:23;;;;;;;33.95;20.75;;;;;;;-2.26;100.00;99545.84;4974116;28;20042;-86
2021/12/07 06:06:49;;;;;;;37.38;21.65;;;;;;;-2.38;100.00;99533.25;4990047;28;20068;-87
2021/12/07 06:09:14;;;;;;;36.78;21.13;;;;;;;-2.38;100.00;99527.81;4968360;28;20049;-87
2021/12/07 06:11:41;;;;;;;38.40;21.63;;;;;;;-2.28;100.00;99536.50;4979856;28;20046;-88
2021/12/07 06:14:07;;;;;;;38.20;20.92;;;;;;;-2.33;100.00;99526.72;5007888;28;20045;-87
2021/12/07 06:16:32;;;;;;;34.30;20.70;;;;;;;-2.33;100.00;99534.88;4964201;28;20605;-88
2021/12/07 06:18:58;;;;;;;36.75;21.83;;;;;;;-2.30;100.00;99536.09;4981488;28;20053;-87
2021/12/07 06:21:25;;;;;;;37.45;21.45;;;;;;;-2.33;100.00;99534.09;4982154;28;20042;-88
2021/12/07 06:23:52;;;;;;;37.83;22.02;;;;;;;-2.36;100.00;99522.03;4995043;28;20564;-89
2021/12/07 06:26:19;;;;;;;35.70;21.23;;;;;;;-2.31;100.00;99531.81;4992876;28;20034;-88
2021/12/07 06:28:44;;;;;;;39.10;21.80;;;;;;;-2.31;100.00;99532.59;5000752;28;20045;-89
2021/12/07 06:31:10;;;;;;;37.40;21.15;;;;;;;-2.32;100.00;99528.31;4966712;28;20037;-89
2021/12/07 06:33:35;;;;;;;39.45;21.20;;;;;;;-2.33;100.00;99532.16;4997041;28;20503;-89
2021/12/07 06:36:03;;;;;;;36.38;19.95;;;;;;;-2.40;100.00;99523.91;4976267;28;20511;-89
2021/12/07 06:38:30;;;;;;;36.50;20.60;;;;;;;-2.43;100.00;99524.63;4989171;28;20052;-88
2021/12/07 06:40:59;;;;;;;40.90;21.70;;;;;;;-2.45;100.00;99535.06;4985976;28;20571;-89
2021/12/07 06:43:25;;;;;;;37.00;21.17;;;;;;;-2.47;100.00;99538.16;4977813;28;20077;-87
2021/12/07 06:45:51;;;;;;;36.08;20.83;;;;;;;-2.54;100.00;99534.50;4975968;28;20562;-88
2021/12/07 06:48:17;;;;;;;37.30;20.85;;;;;;;-2.50;100.00;99536.13;5007031;28;20046;-88
2021/12/07 06:50:43;;;;;;;37.08;20.80;;;;;;;-2.53;100.00;99530.66;4997850;28;20045;-88
2021/12/07 06:53:09;;;;;;;39.67;21.08;;;;;;;-2.56;100.00;99525.94;4995148;28;20275;-88
2021/12/07 06:55:35;;;;;;;36.92;21.38;;;;;;;-2.55;100.00;99533.75;4994368;28;20033;-88
2021/12/07 06:58:01;;;;;;;38.42;22.17;;;;;;;-2.51;100.00;99533.81;4959635;28;20092;-88
2021/12/07 07:00:26;;;;;;;42.53;22.02;;;;;;;-2.52;100.00;99534.94;4977304;28;20034;-88
2021/12/07 07:02:52;;;;;;;41.53;22.77;;;;;;;-2.44;100.00;99533.91;4976285;28;20492;-88
2021/12/07 07:05:18;;;;;;;38.47;22.35;;;;;;;-2.35;100.00;99542.63;4996157;28;20042;-87
2021/12/07 07:07:44;;;;;;;38.30;21.58;;;;;;;-2.27;100.00;99549.75;4985981;28;20407;-88
2021/12/07 07:10:12;;;;;;;38.95;22.33;;;;;;;-2.15;100.00;99546.84;4964548;28;20046;-88
2021/12/07 07:12:39;;;;;;;39.88;21.85;;;;;;;-2.08;100.00;99540.72;4979867;28;20545;-88
2021/12/07 07:15:06;;;;;;;39.33;21.88;;;;;;;-1.97;100.00;99542.44;4980007;28;20132;-87
2021/12/07 07:17:34;;;;;;;43.05;23.67;;;;;;;-1.90;100.00;99542.53;4979988;28;20041;-87
2021/12/07 07:19:59;;;;;;;42.88;23.70;;;;;;;-1.81;100.00;99527.91;4979751;28;20571;-87
2021/12/07 07:22:25;;;;;;;38.50;22.30;;;;;;;-1.76;100.00;99533.03;4979901;28;20129;-87
2021/12/07 07:24:51;;;;;;;39.05;21.88;;;;;;;-1.69;100.00;99546.72;4979595;28;20431;-88
2021/12/07 07:27:16;;;;;;;37.45;22.42;;;;;;;-1.64;100.00;99543.69;4979835;28;20049;-88
2021/12/07 07:29:42;;;;;;;40.17;22.05;;;;;;;-1.54;100.00;99537.63;4979668;28;20030;-89
2021/12/07 07:32:08;;;;;;;38.33;21.30;;;;;;;-1.52;100.00;99532.59;4995957;28;20042;-87
2021/12/07 07:34:33;;;;;;;36.75;21.88;;;;;;;-1.48;100.00;99533.44;4963625;28;20086;-88
2021/12/07 07:36:59;;;;;;;36.78;21.23;;;;;;;-1.42;100.00;99534.69;4995742;28;20088;-88
2021/12/07 07:39:25;;;;;;;40.28;22.90;;;;;;;-1.34;100.00;99544.50;4995770;28;20411;-88
2021/12/07 07:41:50;;;;;;;37.70;22.90;;;;;;;-1.23;100.00;99541.91;4996027;28;20041;-87
2021/12/07 07:44:16;;;;;;;41.35;22.45;;;;;;;-1.25;100.00;99531.38;4979264;28;20061;-87
2021/12/07 07:46:45;;;;;;;36.88;22.27;;;;;;;-1.16;100.00;99545.50;4979967;28;20074;-88
2021/12/07 07:49:10;;;;;;;36.95;22.50;;;;;;;-1.03;100.00;99546.03;4995593;28;20081;-88
2021/12/07 07:51:36;;;;;;;38.15;23.08;;;;;;;-0.93;100.00;99556.28;4995706;28;20046;-88
2021/12/07 07:54:03;;;;;;;37.22;22.48;;;;;;;-0.83;100.00;99558.34;4996346;28;20057;-88
2021/12/07 07:56:29;;;;;;;35.40;21.80;;;;;;;-0.83;100.00;99557.53;4995511;28;20034;-88
2021/12/07 07:58:55;;;;;;;33.67;21.02;;;;;;;-0.86;100.00;99556.38;4979169;28;20053;-88
2021/12/07 08:01:23;;;;;;;37.70;21.15;;;;;;;-0.83;100.00;99563.00;4995266;28;20046;-87
2021/12/07 08:03:50;;;;;;;38.45;21.73;;;;;;;-0.77;100.00;99569.69;4979531;28;20046;-87
2021/12/07 08:06:16;;;;;;;33.45;20.25;;;;;;;-0.75;100.00;99572.81;4996577;28;20060;-88
2021/12/07 08:08:41;;;;;;;34.17;20.75;;;;;;;-0.79;100.00;99567.31;4978665;28;20037;-86
2021/12/07 08:11:07;;;;;;;36.63;21.85;;;;;;;-0.68;100.00;99576.38;4994783;28;20407;-87
2021/12/07 08:13:33;;;;;;;35.00;20.85;;;;;;;-0.68;100.00;99570.94;4978836;28;20172;-87
2021/12/07 08:15:58;;;;;;;36.65;21.17;;;;;;;-0.59;100.00;99576.09;4995008;28;20049;-86
2021/12/07 08:18:24;;;;;;;38.05;21.42;;;;;;;-0.60;100.00;99574.53;4979003;28;20038;-87
2021/12/07 08:20:50;;;;;;;35.50;20.40;;;;;;;-0.49;100.00;99576.22;4963107;28;20056;-89
2021/12/07 08:23:15;;;;;;;35.13;21.65;;;;;;;-0.49;100.00;99583.63;4978388;28;20050;-86
2021/12/07 08:25:45;;;;;;;32.53;19.80;;;;;;;-0.42;100.00;99580.16;4995004;28;20517;-88
2021/12/07 08:28:13;;;;;;;36.53;21.30;;;;;;;-0.44;100.00;99577.81;4978727;28;20077;-87
2021/12/07 08:30:40;;;;;;;37.72;21.70;;;;;;;-0.50;100.00;99568.41;4978882;28;20041;-86
2021/12/07 08:33:05;;;;;;;35.50;21.45;;;;;;;-0.40;100.00;99583.31;4994696;28;20091;-87
2021/12/07 08:35:31;;;;;;;34.33;20.23;;;;;;;-0.27;100.00;99595.47;4978855;28;20046;-87
2021/12/07 08:37:57;;;;;;;35.92;21.73;;;;;;;-0.28;100.00;99581.06;4978222;28;20061;-86
2021/12/07 08:40:25;;;;;;;42.03;23.35;;;;;;;-0.25;100.00;99574.88;4978561;28;20328;-89
2021/12/07 08:42:51;;;;;;;47.33;26.90;;;;;;;-0.07;100.00;99586.72;4978435;28;20402;-87
2021/12/07 08:45:17;;;;;;;40.13;22.67;;;;;;;0.02;100.00;99600.03;4978149;28;20041;-87
2021/12/07 08:47:43;;;;;;;36.92;22.20;;;;;;;0.05;100.00;99598.50;4978860;28;20042;-87
2021/12/07 08:50:14;;;;;;;41.35;23.50;;;;;;;0.16;100.00;99602.13;4994388;28;20491;-87
2021/12/07 08:52:39;;;;;;;37.50;22.92;;;;;;;0.28;100.00;99590.91;4978258;28;20096;-87
2021/12/07 09:00:32;;;;;;;31.90;19.02;;;;;;;0.54;98.24;99589.91;4997264;28;20113;-87
2021/12/07 09:02:58;;;;;;;32.47;19.17;;;;;;;0.63;97.70;99599.31;4961370;28;20042;-87
2021/12/07 09:05:24;;;;;;;30.85;19.55;;;;;;;0.55;96.40;99578.59;4978226;28;20438;-87
2021/12/07 09:07:49;;;;;;;30.58;19.08;;;;;;;0.65;96.52;99599.72;4994351;28;20049;-87
2021/12/07 09:10:16;;;;;;;30.58;19.58;;;;;;;0.64;97.21;99579.06;4977664;28;20088;-87
2021/12/07 09:12:41;;;;;;;35.03;18.70;;;;;;;0.69;96.28;99578.66;4977210;28;20080;-86
2021/12/07 09:15:07;;;;;;;31.20;19.25;;;;;;;0.72;94.43;99575.19;4961145;28;20073;-86
2021/12/07 09:17:33;;;;;;;30.25;19.08;;;;;;;0.83;94.72;99592.41;4994263;28;20418;-86
2021/12/07 09:19:59;;;;;;;33.53;19.42;;;;;;;0.81;95.03;99589.28;4993619;28;20030;-86
2021/12/07 09:22:28;;;;;;;30.67;18.77;;;;;;;0.84;95.63;99593.19;4977840;28;20042;-86
2021/12/07 09:24:54;;;;;;;30.23;19.10;;;;;;;0.75;94.97;99582.63;4993822;28;20042;-87
2021/12/07 09:27:19;;;;;;;32.15;17.63;;;;;;;0.89;93.51;99593.59;4993542;28;20056;-86
2021/12/07 09:29:45;;;;;;;33.38;19.63;;;;;;;0.93;94.17;99591.66;4993974;28;20120;-87
2021/12/07 09:32:11;;;;;;;32.22;19.13;;;;;;;0.94;93.26;99595.97;4993653;28;20042;-86
2021/12/07 09:34:36;;;;;;;29.65;17.48;;;;;;;1.03;92.95;99597.56;4977688;28;20088;-87
2021/12/07 09:37:02;;;;;;;31.55;18.77;;;;;;;1.06;92.82;99596.78;4977514;28;20033;-89
2021/12/07 09:39:28;;;;;;;31.38;18.42;;;;;;;1.11;92.34;99585.50;4977783;28;20034;-90
2021/12/07 09:41:55;;;;;;;30.80;19.48;;;;;;;1.19;91.13;99584.38;4993642;28;20041;-89
2021/12/07 09:44:21;;;;;;;28.58;18.45;;;;;;;1.33;91.01;99589.91;4977627;28;20069;-89
2021/12/07 09:46:47;;;;;;;30.17;19.02;;;;;;;1.48;90.75;99594.22;4994031;28;20111;-89
2021/12/07 09:49:12;;;;;;;30.42;18.63;;;;;;;1.52;89.32;99573.16;4993513;28;20053;-90
2021/12/07 09:51:39;;;;;;;31.23;18.58;;;;;;;1.61;88.31;99576.31;4977577;28;20034;-89
2021/12/07 09:54:08;;;;;;;32.80;18.40;;;;;;;1.64;88.13;99583.72;4976825;28;20053;-90
2021/12/07 09:56:35;;;;;;;31.33;19.98;;;;;;;1.77;88.32;99593.13;4993944;28;20041;-90
2021/12/07 09:59:00;;;;;;;31.58;18.05;;;;;;;1.74;86.98;99577.47;4976650;28;20513;-91
2021/12/07 10:01:27;;;;;;;26.48;16.40;;;;;;;1.81;86.94;99577.50;4993471;28;20073;-90
2021/12/07 10:03:53;;;;;;;28.65;16.42;;;;;;;1.85;86.78;99583.75;4993141;28;20124;-92
2021/12/07 10:06:19;;;;;;;27.60;17.35;;;;;;;1.86;86.00;99582.56;4977135;28;20502;-90
2021/12/07 10:08:46;;;;;;;27.30;17.40;;;;;;;1.90;86.86;99582.59;5005219;28;20042;-90
2021/12/07 10:11:12;;;;;;;27.55;17.90;;;;;;;2.02;85.99;99576.75;4977161;28;20056;-91
2021/12/07 10:13:39;;;;;;;29.42;19.00;;;;;;;2.08;86.95;99575.16;4993080;28;20562;-91
2021/12/07 10:16:06;;;;;;;28.98;18.75;;;;;;;2.24;85.42;99577.50;4993261;28;20140;-87
2021/12/07 10:18:36;;;;;;;28.02;17.70;;;;;;;2.25;86.17;99552.47;4977052;28;20495;-88
2021/12/07 10:21:10;;;;;;;28.65;18.50;;;;;;;2.40;84.75;99572.41;4977116;28;20053;-87
2021/12/07 10:23:38;;;;;;;25.35;16.17;;;;;;;2.60;84.24;99584.50;4977474;28;20137;-87
2021/12/07 10:26:25;;;;;;;26.63;16.65;;;;;;;2.49;82.92;99578.25;4980828;28;20192;-87
2021/12/07 10:28:56;;;;;;;30.23;17.40;;;;;;;2.50;84.25;99585.31;4964522;28;20121;-87
2021/12/07 10:31:28;;;;;;;28.38;17.20;;;;;;;2.59;83.26;99580.19;4977792;28;20652;-88
2021/12/07 10:34:00;;;;;;;26.15;16.60;;;;;;;2.58;82.76;99572.38;4977493;28;20042;-87
2021/12/07 10:36:29;;;;;;;22.98;14.50;;;;;;;2.71;82.41;99574.28;4961806;28;20100;-90
2021/12/07 10:39:08;;;;;;;26.45;16.30;;;;;;;2.79;82.38;99575.06;4945116;28;20030;-89
2021/12/07 10:41:37;;;;;;;25.48;15.60;;;;;;;2.74;81.75;99589.94;4961509;28;20053;-90
2021/12/07 10:44:07;;;;;;;27.55;16.67;;;;;;;2.71;82.18;99574.28;4944815;28;20222;-90
2021/12/07 10:47:07;;;;;;;27.55;16.63;;;;;;;2.66;81.59;99582.94;4995381;28;20080;-90
2021/12/07 10:49:33;;;;;;;26.88;15.65;;;;;;;2.79;81.16;99586.78;4967212;28;20047;-91
2021/12/07 10:51:58;;;;;;;23.77;14.70;;;;;;;2.82;81.67;99574.28;4977040;28;20051;-90
2021/12/07 10:54:25;;;;;;;26.80;17.02;;;;;;;2.81;81.42;99581.69;4977229;28;20037;-87
2021/12/07 10:56:51;;;;;;;24.70;16.70;;;;;;;2.83;81.98;99569.56;4977738;28;20053;-87
2021/12/07 10:59:17;;;;;;;26.80;16.20;;;;;;;2.91;81.49;99566.44;4969104;28;20045;-87
2021/12/07 11:01:47;;;;;;;25.30;17.05;;;;;;;3.06;82.51;99558.91;4980190;28;20049;-87
2021/12/07 11:04:35;;;;;;;25.52;16.70;;;;;;;3.21;80.73;99558.44;4979825;28;20060;-87
2021/12/07 11:07:18;;;;;;;26.23;17.67;;;;;;;3.24;80.75;99551.38;4996497;28;20057;-87
2021/12/07 11:10:14;;;;;;;26.98;17.25;;;;;;;3.34;80.28;99550.56;4996173;28;20053;-87
2021/12/07 11:12:54;;;;;;;28.27;17.10;;;;;;;3.36;79.89;99541.94;4980960;28;20165;-90
2021/12/07 11:15:25;;;;;;;27.25;17.25;;;;;;;3.47;79.77;99537.97;4964838;28;20065;-87
2021/12/07 11:18:04;;;;;;;25.30;17.50;;;;;;;3.55;79.20;99533.22;4980164;28;20082;-87
2021/12/07 11:20:31;;;;;;;27.48;15.95;;;;;;;3.50;78.40;99520.69;4980086;28;20057;-87
2021/12/07 11:23:08;;;;;;;26.20;16.80;;;;;;;3.61;78.75;99526.09;4979819;28;20091;-87
2021/12/07 11:32:01;;;;;;;26.38;15.85;;;;;;;3.83;77.33;99518.50;4998877;28;20450;-87
2021/12/07 11:34:30;;;;;;;22.55;14.75;;;;;;;3.82;76.85;99508.72;4969850;28;20052;-87
2021/12/07 11:37:04;;;;;;;21.88;14.82;;;;;;;3.82;76.68;99514.19;4979021;28;20093;-87
2021/12/07 11:39:41;;;;;;;25.35;16.10;;;;;;;3.68;76.94;99499.41;4976530;28;20077;-87
2021/12/07 11:42:17;;;;;;;24.20;16.60;;;;;;;3.65;76.59;99515.88;4976956;28;20053;-87
2021/12/07 11:45:06;;;;;;;22.15;13.63;;;;;;;3.59;76.76;99512.81;4960161;28;20097;-87
2021/12/07 11:47:53;;;;;;;24.40;15.55;;;;;;;3.60;77.84;99500.63;4976937;28;20062;-87
2021/12/07 11:50:31;;;;;;;22.13;15.60;;;;;;;3.70;77.13;99497.03;4976189;28;20050;-86
2021/12/07 11:53:10;;;;;;;23.75;16.17;;;;;;;3.62;77.93;99481.03;4993868;28;20149;-90
2021/12/07 11:55:37;;;;;;;28.33;18.35;;;;;;;3.82;77.31;99497.72;4976085;28;20555;-89
2021/12/07 11:58:04;;;;;;;27.33;17.67;;;;;;;3.94;77.31;99487.03;4979784;28;20383;-91
2021/12/07 12:00:36;;;;;;;27.38;18.30;;;;;;;4.14;78.26;99481.75;4975989;28;20070;-91
2021/12/07 12:03:04;;;;;;;24.13;17.02;;;;;;;4.27;75.93;99468.31;4975867;28;20057;-90
2021/12/07 12:05:29;;;;;;;26.67;17.98;;;;;;;4.37;76.68;99462.69;4997603;28;20563;-91
2021/12/07 12:07:56;;;;;;;26.98;16.23;;;;;;;4.54;75.72;99461.72;4995196;28;20125;-90
2021/12/07 12:10:22;;;;;;;25.23;16.65;;;;;;;4.48;75.06;99465.34;4995364;28;20057;-90
2021/12/07 12:13:17;;;;;;;26.80;18.00;;;;;;;4.56;75.88;99464.06;4963043;28;20073;-89
2021/12/07 12:15:46;;;;;;;23.50;14.57;;;;;;;4.59;74.61;99463.25;4994902;28;20050;-91
2021/12/07 12:18:34;;;;;;;26.65;16.48;;;;;;;4.53;74.39;99464.91;4978924;28;20053;-89
2021/12/07 12:21:55;;;;;;;22.38;14.85;;;;;;;4.44;73.22;99468.13;4978523;28;20053;-89
2021/12/07 12:24:32;;;;;;;23.83;13.77;;;;;;;4.19;72.87;99451.91;4955059;28;20058;-90
2021/12/07 12:27:18;;;;;;;25.45;16.10;;;;;;;3.94;74.72;99445.09;4955005;28;20178;-89
2021/12/07 12:29:46;;;;;;;21.15;15.55;;;;;;;3.94;75.45;99439.63;4986241;28;20140;-90
2021/12/07 12:32:11;;;;;;;23.80;16.23;;;;;;;3.98;74.85;99456.81;4962678;28;20046;-90
2021/12/07 12:34:47;;;;;;;22.30;15.18;;;;;;;3.97;75.69;99460.75;4978192;28;20408;-89
2021/12/07 12:37:19;;;;;;;23.23;15.63;;;;;;;4.03;76.28;99459.13;4978631;28;20042;-90
2021/12/07 12:39:50;;;;;;;25.40;16.17;;;;;;;4.09;76.30;99466.50;4978307;28;20041;-88
2021/12/07 12:42:36;;;;;;;23.58;15.80;;;;;;;4.23;76.22;99462.84;4990262;28;20046;-90
2021/12/07 12:45:17;;;;;;;24.60;16.42;;;;;;;4.44;76.94;99478.31;4994326;28;20042;-89
2021/12/07 12:47:43;;;;;;;24.67;16.23;;;;;;;4.54;75.10;99467.22;4993617;28;20490;-89
2021/12/07 12:50:18;;;;;;;22.88;15.77;;;;;;;4.47;73.66;99475.53;4993967;28;20130;-89
2021/12/07 12:52:53;;;;;;;24.77;16.48;;;;;;;4.41;75.37;99474.41;4978523;28;20046;-89
2021/12/07 12:55:26;;;;;;;24.85;16.92;;;;;;;4.45;75.77;99461.41;4980517;28;20042;-90
2021/12/07 12:57:52;;;;;;;23.58;16.08;;;;;;;4.57;74.71;99482.13;4994622;28;20038;-89
2021/12/07 13:00:19;;;;;;;24.35;16.25;;;;;;;4.64;74.76;99476.53;4994260;28;20089;-88
2021/12/07 13:02:53;;;;;;;21.95;15.77;;;;;;;4.75;74.37;99462.66;4994021;28;20121;-88
2021/12/07 13:05:33;;;;;;;20.58;13.52;;;;;;;4.72;71.25;99483.50;4993682;28;20045;-90
2021/12/07 13:08:16;;;;;;;20.73;14.32;;;;;;;4.67;73.31;99468.25;4994815;28;20128;-86
2021/12/07 13:44:33;;;;;;;22.48;14.82;;;;;;;3.49;76.95;99485.44;6161830;23;20612;-86